createdAt,value
2019-02-16T00:00:45.624Z,77.98
2019-02-16T00:03:18.014Z,78.18
2019-02-16T00:05:51.196Z,78.62
2019-02-16T00:08:25.492Z,78.88
2019-02-16T00:11:00.298Z,78.67
2019-02-16T00:13:36.636Z,78.49
2019-02-16T00:16:10.896Z,78.23
2019-02-16T00:18:45.546Z,78.55
2019-02-16T00:21:20.421Z,78.42
2019-02-16T00:24:00.536Z,78.19
2019-02-16T00:26:30.961Z,78.33
2019-02-16T00:29:04.501Z,78.84
2019-02-16T00:31:38.625Z,79.00
2019-02-16T00:34:09.935Z,78.72
2019-02-16T00:36:42.996Z,79.62
2019-02-16T00:39:17.645Z,79.72
2019-02-16T00:41:50.431Z,79.75
2019-02-16T00:44:23.661Z,79.55
2019-02-16T00:46:56.829Z,79.71
2019-02-16T00:49:30.689Z,79.14
2019-02-16T00:52:01.960Z,79.20
2019-02-16T00:54:34.555Z,79.11
2019-02-16T00:57:04.765Z,79.21
2019-02-16T00:59:37.756Z,79.61
2019-02-16T01:02:08.489Z,79.42
2019-02-16T01:04:39.966Z,79.84
2019-02-16T01:07:15.361Z,79.79
2019-02-16T01:09:47.585Z,80.01
2019-02-16T01:12:20.570Z,80.03
2019-02-16T01:14:51.359Z,79.55
2019-02-16T01:17:25.324Z,79.05
2019-02-16T01:19:57.587Z,79.28
2019-02-16T01:22:29.745Z,78.88
2019-02-16T01:25:03.254Z,79.14
2019-02-16T01:27:33.461Z,79.40
2019-02-16T01:30:06.663Z,79.83
2019-02-16T01:32:37.720Z,80.05
2019-02-16T01:35:14.002Z,80.08
2019-02-16T01:37:44.808Z,80.06
2019-02-16T01:40:18.265Z,79.89
2019-02-16T01:42:49.441Z,79.93
2019-02-16T01:45:26.178Z,79.95
2019-02-16T01:47:56.417Z,80.21
2019-02-16T01:50:34.563Z,79.88
2019-02-16T01:53:08.598Z,79.69
2019-02-16T01:55:43.227Z,79.54
2019-02-16T01:58:16.865Z,79.76
2019-02-16T02:00:48.748Z,80.81
2019-02-16T02:05:56.890Z,80.83
2019-02-16T02:08:29.574Z,80.69
2019-02-16T02:11:00.644Z,80.45
2019-02-16T02:13:35.981Z,80.35
2019-02-16T02:16:07.610Z,80.03
2019-02-16T02:18:39.814Z,80.69
2019-02-16T02:21:11.866Z,80.83
2019-02-16T02:23:49.074Z,80.29
2019-02-16T02:26:19.512Z,80.13
2019-02-16T02:28:56.898Z,80.28
2019-02-16T02:31:29.763Z,80.36
2019-02-16T02:36:49.674Z,80.80
2019-02-16T02:39:21.803Z,80.49
2019-02-16T02:41:53.265Z,80.45
2019-02-16T02:44:25.985Z,80.24
2019-02-16T02:46:58.360Z,80.33
2019-02-16T02:49:31.458Z,80.07
2019-02-16T02:52:06.586Z,80.19
2019-02-16T02:54:38.319Z,80.29
2019-02-16T02:57:10.315Z,80.02
2019-02-16T02:59:43.721Z,80.21
2019-02-16T03:04:57.258Z,80.03
2019-02-16T03:07:33.630Z,79.66
2019-02-16T03:10:03.717Z,80.00
2019-02-16T03:12:35.945Z,79.50
2019-02-16T03:15:08.474Z,79.80
2019-02-16T03:17:40.660Z,79.72
2019-02-16T03:20:14.994Z,79.29
2019-02-16T03:23:18.105Z,79.34
2019-02-16T03:25:52.033Z,79.62
2019-02-16T03:31:59.996Z,79.24
2019-02-16T03:34:43.522Z,79.24
2019-02-16T03:37:57.712Z,79.50
2019-02-16T03:40:28.871Z,79.80
2019-02-16T03:43:05.396Z,79.42
2019-02-16T03:45:36.544Z,79.68
2019-02-16T03:48:13.912Z,79.41
2019-02-16T03:50:45.244Z,79.42
2019-02-16T03:53:19.496Z,79.78
2019-02-16T03:55:50.232Z,79.59
2019-02-16T03:58:22.837Z,79.94
2019-02-16T04:00:54.468Z,80.08
2019-02-16T04:03:28.304Z,80.04
2019-02-16T04:05:59.631Z,80.24
2019-02-16T04:08:33.065Z,80.04
2019-02-16T04:11:05.810Z,80.22
2019-02-16T04:13:47.734Z,79.80
2019-02-16T04:16:17.743Z,79.58
2019-02-16T04:18:52.960Z,79.94
2019-02-16T04:21:26.458Z,79.45
2019-02-16T04:24:01.311Z,79.56
2019-02-16T04:26:36.858Z,79.75
2019-02-16T04:29:09.114Z,79.73
2019-02-16T04:31:45.079Z,79.64
2019-02-16T04:34:18.477Z,79.68
2019-02-16T04:36:54.749Z,79.65
2019-02-16T04:39:30.042Z,79.66
2019-02-16T04:42:04.914Z,80.06
2019-02-16T04:44:37.303Z,79.74
2019-02-16T04:47:10.932Z,79.71
2019-02-16T04:49:45.315Z,80.14
2019-02-16T04:52:17.443Z,79.74
2019-02-16T04:54:52.734Z,79.81
2019-02-16T04:57:25.267Z,79.66
2019-02-16T04:59:58.186Z,80.07
2019-02-16T05:02:35.158Z,80.04
2019-02-16T05:05:05.239Z,80.29
2019-02-16T05:07:40.198Z,80.47
2019-02-16T05:10:10.531Z,80.57
2019-02-16T05:12:46.464Z,80.13
2019-02-16T05:15:18.150Z,80.93
2019-02-16T05:17:55.342Z,81.06
2019-02-16T05:20:30.335Z,80.81
2019-02-16T05:23:05.226Z,80.72
2019-02-16T05:25:37.128Z,80.48
2019-02-16T05:28:14.790Z,80.35
2019-02-16T05:30:49.831Z,80.33
2019-02-16T05:33:20.797Z,80.25
2019-02-16T05:35:56.013Z,81.18
2019-02-16T05:38:27.915Z,80.59
2019-02-16T05:41:07.651Z,80.68
2019-02-16T05:43:41.661Z,80.74
2019-02-16T05:46:11.961Z,80.80
2019-02-16T05:48:45.446Z,80.62
2019-02-16T05:51:15.844Z,80.81
2019-02-16T05:53:49.888Z,80.61
2019-02-16T05:56:21.510Z,81.14
2019-02-16T05:58:55.556Z,81.07
2019-02-16T06:01:26.697Z,81.04
2019-02-16T06:04:02.870Z,81.18
2019-02-16T06:06:34.610Z,80.94
2019-02-16T06:09:09.419Z,81.27
2019-02-16T06:11:39.735Z,80.96
2019-02-16T06:14:16.360Z,81.42
2019-02-16T06:16:46.738Z,81.35
2019-02-16T06:19:20.584Z,81.31
2019-02-16T06:21:56.844Z,81.19
2019-02-16T06:24:35.790Z,81.33
2019-02-16T06:27:14.902Z,81.29
2019-02-16T06:29:45.418Z,81.00
2019-02-16T06:32:18.942Z,81.16
2019-02-16T06:35:24.062Z,80.94
2019-02-16T06:37:58.412Z,81.11
2019-02-16T06:40:28.718Z,81.09
2019-02-16T06:42:59.925Z,81.20
2019-02-16T06:45:31.565Z,81.36
2019-02-16T06:48:08.219Z,80.95
2019-02-16T06:50:40.174Z,81.08
2019-02-16T06:53:13.744Z,81.57
2019-02-16T06:55:54.146Z,81.32
2019-02-16T06:58:29.054Z,81.19
2019-02-16T07:03:37.302Z,80.91
2019-02-16T07:06:10.348Z,81.49
2019-02-16T07:08:46.133Z,81.31
2019-02-16T07:11:22.571Z,81.19
2019-02-16T07:13:56.535Z,81.19
2019-02-16T07:16:53.683Z,81.03
2019-02-16T07:19:35.477Z,80.48
2019-02-16T07:22:05.529Z,80.29
2019-02-16T07:24:40.839Z,79.74
2019-02-16T07:27:13.629Z,80.65
2019-02-16T07:29:48.149Z,79.29
2019-02-16T07:32:26.345Z,79.98
2019-02-16T07:35:03.761Z,79.70
2019-02-16T07:37:36.746Z,80.37
2019-02-16T07:40:10.018Z,80.25
2019-02-16T07:43:00.058Z,80.49
2019-02-16T07:45:59.585Z,79.61
2019-02-16T07:48:48.879Z,80.21
2019-02-16T07:52:02.965Z,79.57
2019-02-16T07:54:57.549Z,79.66
2019-02-16T07:57:36.141Z,80.16
2019-02-16T08:00:17.945Z,79.12
2019-02-16T08:03:00.232Z,79.46
2019-02-16T08:05:58.003Z,79.69
2019-02-16T08:08:43.411Z,79.72
2019-02-16T08:11:32.467Z,79.34
2019-02-16T08:14:18.383Z,78.85
2019-02-16T08:17:06.302Z,78.14
2019-02-16T08:19:58.987Z,77.95
2019-02-16T08:22:41.701Z,77.90
2019-02-16T08:25:49.620Z,77.11
2019-02-16T08:28:34.922Z,78.28
2019-02-16T08:31:18.245Z,78.42
2019-02-16T08:34:04.179Z,78.91
2019-02-16T08:36:47.517Z,78.52
2019-02-16T08:39:43.661Z,77.90
2019-02-16T08:42:33.013Z,76.87
2019-02-16T08:45:27.741Z,76.48
2019-02-16T08:48:05.223Z,75.69
2019-02-16T08:50:43.395Z,74.63
2019-02-16T08:53:37.811Z,73.52
2019-02-16T08:56:25.391Z,73.32
2019-02-16T08:59:36.717Z,73.51
2019-02-16T09:02:40.840Z,72.35
2019-02-16T09:05:32.180Z,72.13
2019-02-16T09:08:22.521Z,72.68
2019-02-16T09:11:15.114Z,73.43
2019-02-16T09:14:04.143Z,73.76
2019-02-16T09:17:10.360Z,73.42
2019-02-16T09:19:54.347Z,73.33
2019-02-16T09:22:35.463Z,71.53
2019-02-16T09:25:28.711Z,71.85
2019-02-16T09:28:14.305Z,71.26
2019-02-16T09:31:05.732Z,71.05
2019-02-16T09:33:58.202Z,70.96
2019-02-16T09:36:56.266Z,70.04
2019-02-16T09:39:36.290Z,72.08
2019-02-16T09:42:25.140Z,73.36
2019-02-16T09:45:16.515Z,72.23
2019-02-16T09:48:07.606Z,72.40
2019-02-16T09:50:57.694Z,72.55
2019-02-16T09:53:46.734Z,72.62
2019-02-16T09:56:57.941Z,73.62
2019-02-16T09:59:40.447Z,72.83
2019-02-16T10:02:35.798Z,71.75
2019-02-16T10:05:22.828Z,72.58
2019-02-16T10:08:09.206Z,72.09
2019-02-16T10:10:52.315Z,71.45
2019-02-16T10:13:50.585Z,73.62
2019-02-16T10:16:38.536Z,71.99
2019-02-16T10:19:25.830Z,71.79
2019-02-16T10:22:30.072Z,70.35
2019-02-16T10:25:18.519Z,70.13
2019-02-16T10:28:13.238Z,69.49
2019-02-16T10:31:17.816Z,69.61
2019-02-16T10:33:59.647Z,69.35
2019-02-16T10:36:57.750Z,69.24
2019-02-16T10:39:40.928Z,68.92
2019-02-16T10:42:40.790Z,69.54
2019-02-16T10:45:35.380Z,68.44
2019-02-16T10:48:16.905Z,68.43
2019-02-16T10:51:09.936Z,67.38
2019-02-16T10:53:50.802Z,67.63
2019-02-16T10:56:56.234Z,67.49
2019-02-16T10:59:55.660Z,67.17
2019-02-16T11:02:56.264Z,66.68
2019-02-16T11:05:43.996Z,68.03
2019-02-16T11:08:39.964Z,67.83
2019-02-16T11:11:27.634Z,66.07
2019-02-16T11:14:30.597Z,66.33
2019-02-16T11:17:08.922Z,65.43
2019-02-16T11:19:48.637Z,64.47
2019-02-16T11:22:37.624Z,64.98
2019-02-16T11:25:37.526Z,63.85
2019-02-16T11:28:35.442Z,67.08
2019-02-16T11:31:28.493Z,65.89
2019-02-16T11:34:14.906Z,66.69
2019-02-16T11:37:05.131Z,63.97
2019-02-16T11:39:53.202Z,63.37
2019-02-16T11:43:03.270Z,62.90
2019-02-16T11:45:54.440Z,61.57
2019-02-16T11:48:41.515Z,62.83
2019-02-16T11:51:51.715Z,62.29
2019-02-16T11:54:45.512Z,62.40
2019-02-16T11:57:30.045Z,61.84
2019-02-16T12:00:16.632Z,62.56
2019-02-16T12:03:08.745Z,62.51
2019-02-16T12:05:47.202Z,61.84
2019-02-16T12:08:39.524Z,62.63
2019-02-16T12:11:32.453Z,61.55
2019-02-16T12:14:23.209Z,62.00
2019-02-16T12:17:16.609Z,61.61
2019-02-16T12:19:55.043Z,60.41
2019-02-16T12:22:49.040Z,60.64
2019-02-16T12:25:47.776Z,60.04
2019-02-16T12:28:49.923Z,61.20
2019-02-16T12:31:58.727Z,59.73
2019-02-16T12:34:59.661Z,61.24
2019-02-16T12:37:58.720Z,60.52
2019-02-16T12:40:56.276Z,59.08
2019-02-16T12:43:46.590Z,59.10
2019-02-16T12:46:45.743Z,58.28
2019-02-16T12:49:41.377Z,58.26
2019-02-16T12:52:34.937Z,58.01
2019-02-16T12:55:38.441Z,56.36
2019-02-16T12:58:30.179Z,56.74
2019-02-16T13:01:22.573Z,56.28
2019-02-16T13:04:29.403Z,56.70
2019-02-16T13:07:15.756Z,56.28
2019-02-16T13:10:10.263Z,56.15
2019-02-16T13:13:09.539Z,56.66
2019-02-16T13:16:12.328Z,57.10
2019-02-16T13:19:03.894Z,56.38
2019-02-16T13:22:04.814Z,58.32
2019-02-16T13:25:04.973Z,58.75
2019-02-16T13:39:41.658Z,59.09
2019-02-16T13:42:27.035Z,59.32
2019-02-16T13:45:20.436Z,60.01
2019-02-16T13:48:10.401Z,58.84
2019-02-16T13:51:03.413Z,59.97
2019-02-16T13:53:50.049Z,60.74
2019-02-16T13:57:03.841Z,59.94
2019-02-16T13:59:44.994Z,60.17
2019-02-16T14:02:40.357Z,59.70
2019-02-16T14:05:36.477Z,59.79
2019-02-16T14:08:29.357Z,59.29
2019-02-16T14:11:16.941Z,59.66
2019-02-16T14:14:13.706Z,60.13
2019-02-16T14:17:08.927Z,60.35
2019-02-16T14:19:44.307Z,60.49
2019-02-16T14:22:18.385Z,60.01
2019-02-16T14:24:59.419Z,60.63
2019-02-16T14:27:30.403Z,60.18
2019-02-16T14:30:04.915Z,60.76
2019-02-16T14:32:35.121Z,60.24
2019-02-16T14:38:07.161Z,59.30
2019-02-16T14:40:44.108Z,60.09
2019-02-16T14:43:18.269Z,59.32
2019-02-16T14:45:49.507Z,59.32
2019-02-16T14:48:26.955Z,59.67
2019-02-16T14:50:57.426Z,59.42
2019-02-16T14:53:30.773Z,58.79
2019-02-16T14:56:06.099Z,58.72
2019-02-16T14:58:40.691Z,58.77
2019-02-16T15:01:14.319Z,58.44
2019-02-16T15:03:55.431Z,59.38
2019-02-16T15:06:33.452Z,59.04
2019-02-16T15:09:08.267Z,59.73
2019-02-16T15:11:47.029Z,59.51
2019-02-16T15:16:56.193Z,60.95
2019-02-16T15:19:29.604Z,60.56
2019-02-16T15:22:00.352Z,60.35
2019-02-16T15:24:34.387Z,59.97
2019-02-16T15:27:07.767Z,60.07
2019-02-16T15:29:42.726Z,60.77
2019-02-16T15:32:14.417Z,60.62
2019-02-16T15:34:48.897Z,60.71
2019-02-16T15:37:29.525Z,60.53
2019-02-16T15:40:03.709Z,60.46
2019-02-16T15:42:42.417Z,60.53
2019-02-16T15:45:24.731Z,60.67
2019-02-16T15:47:58.085Z,60.87
2019-02-16T15:50:33.299Z,60.65
2019-02-16T15:53:03.876Z,60.63
2019-02-16T15:55:38.107Z,60.97
2019-02-16T15:58:13.003Z,61.02
2019-02-16T16:00:52.355Z,60.84
2019-02-16T16:03:24.725Z,60.80
2019-02-16T16:05:59.877Z,60.77
2019-02-16T16:08:44.563Z,60.93
2019-02-16T16:11:27.065Z,61.54
2019-02-16T16:14:15.774Z,61.49
2019-02-16T16:17:04.897Z,61.91
2019-02-16T16:19:45.519Z,61.91
2019-02-16T16:22:36.475Z,62.66
2019-02-16T16:25:20.384Z,63.88
2019-02-16T16:28:18.405Z,65.18
2019-02-16T16:31:03.119Z,64.69
2019-02-16T16:34:00.252Z,63.78
2019-02-16T16:36:50.390Z,62.28
2019-02-16T16:39:53.905Z,61.69
2019-02-16T16:42:36.380Z,62.14
2019-02-16T16:45:35.230Z,61.41
2019-02-16T16:48:34.998Z,61.56
2019-02-16T16:51:25.712Z,61.23
2019-02-16T16:54:25.452Z,60.93
2019-02-16T16:57:07.338Z,61.01
2019-02-16T17:00:04.696Z,61.01
2019-02-16T17:02:49.252Z,60.75
2019-02-16T17:05:34.416Z,60.82
2019-02-16T17:08:25.252Z,60.98
2019-02-16T17:11:06.188Z,60.91
2019-02-16T17:14:00.620Z,60.74
2019-02-16T17:17:04.870Z,60.74
2019-02-16T17:19:55.948Z,60.76
2019-02-16T17:22:57.277Z,61.25
2019-02-16T17:25:57.472Z,60.95
2019-02-16T17:28:41.440Z,60.65
2019-02-16T17:31:41.306Z,60.83
2019-02-16T17:34:31.526Z,61.04
2019-02-16T17:37:26.361Z,61.01
2019-02-16T17:40:13.514Z,61.18
2019-02-16T17:43:04.620Z,61.53
2019-02-16T17:45:59.103Z,62.13
2019-02-16T17:48:53.300Z,62.76
2019-02-16T17:51:53.382Z,63.27
2019-02-16T17:54:43.470Z,62.75
2019-02-16T18:00:19.592Z,62.29
2019-02-16T18:03:13.467Z,62.15
2019-02-16T18:06:08.170Z,62.36
2019-02-16T18:09:00.810Z,62.31
2019-02-16T18:11:49.596Z,62.26
2019-02-16T18:14:45.914Z,62.42
2019-02-16T18:17:43.203Z,62.74
2019-02-16T18:20:26.018Z,63.46
2019-02-16T18:23:14.973Z,62.94
2019-02-16T18:26:06.297Z,63.04
2019-02-16T18:28:57.562Z,63.15
2019-02-16T18:31:49.141Z,63.05
2019-02-16T18:34:42.826Z,63.17
2019-02-16T18:37:44.761Z,63.20
2019-02-16T18:40:34.510Z,63.84
2019-02-16T18:43:27.717Z,64.81
2019-02-16T18:46:23.994Z,64.65
2019-02-16T18:49:24.061Z,64.87
2019-02-16T18:52:27.853Z,64.47
2019-02-16T18:55:35.778Z,64.63
2019-02-16T18:58:14.703Z,65.09
2019-02-16T19:01:07.130Z,65.46
2019-02-16T19:03:54.582Z,66.23
2019-02-16T19:06:41.090Z,67.34
2019-02-16T19:09:36.493Z,67.17
2019-02-16T19:12:34.869Z,67.52
2019-02-16T19:15:27.131Z,67.87
2019-02-16T19:18:18.883Z,68.09
2019-02-16T19:21:05.958Z,68.86
2019-02-16T19:23:49.868Z,68.71
2019-02-16T19:26:41.747Z,68.65
2019-02-16T19:29:45.717Z,68.85
2019-02-16T19:32:40.726Z,68.76
2019-02-16T19:35:39.157Z,69.20
2019-02-16T19:38:33.911Z,69.22
2019-02-16T19:41:12.634Z,69.42
2019-02-16T19:44:05.715Z,69.39
2019-02-16T19:47:03.682Z,69.47
2019-02-16T19:50:00.368Z,70.16
2019-02-16T19:52:45.555Z,70.04
2019-02-16T19:55:53.461Z,69.79
2019-02-16T19:58:41.481Z,70.35
2019-02-16T20:01:47.540Z,69.93
2019-02-16T20:04:45.542Z,69.91
2019-02-16T20:07:40.798Z,70.15
2019-02-16T20:10:19.691Z,70.62
2019-02-16T20:13:14.941Z,70.64
2019-02-16T20:15:57.146Z,70.98
2019-02-16T20:19:06.410Z,70.87
2019-02-16T20:21:56.183Z,70.98
2019-02-16T20:24:49.762Z,71.63
2019-02-16T20:27:37.328Z,71.52
2019-02-16T20:30:30.631Z,71.30
2019-02-16T20:33:32.247Z,70.80
2019-02-16T20:36:18.505Z,70.76
2019-02-16T20:39:02.303Z,71.04
2019-02-16T20:41:39.263Z,70.79
2019-02-16T20:44:32.027Z,71.34
2019-02-16T20:47:25.259Z,71.08
2019-02-16T20:50:21.439Z,71.21
2019-02-16T20:56:13.902Z,71.70
2019-02-16T20:59:20.812Z,71.41
2019-02-16T21:02:11.682Z,71.64
2019-02-16T21:05:08.830Z,71.56
2019-02-16T21:08:13.927Z,70.93
2019-02-16T21:10:59.402Z,71.59
2019-02-16T21:13:44.639Z,71.77
2019-02-16T21:16:50.134Z,72.04
2019-02-16T21:19:31.556Z,71.67
2019-02-16T21:22:36.657Z,71.05
2019-02-16T21:25:36.869Z,71.00
2019-02-16T21:28:27.809Z,71.27
2019-02-16T21:31:31.774Z,71.76
2019-02-16T21:34:29.913Z,71.17
2019-02-16T21:37:12.363Z,71.38
2019-02-16T21:40:07.296Z,72.11
2019-02-16T21:42:49.579Z,72.32
2019-02-16T21:45:48.324Z,72.66
2019-02-16T21:48:31.185Z,72.73
2019-02-16T21:51:24.087Z,72.92
2019-02-16T21:54:13.664Z,72.37
2019-02-16T21:57:18.078Z,73.01
2019-02-16T22:00:06.001Z,72.95
2019-02-16T22:05:46.852Z,72.68
2019-02-16T22:08:27.070Z,72.32
2019-02-16T22:11:17.175Z,71.92
2019-02-16T22:13:54.952Z,71.70
2019-02-16T22:19:06.004Z,72.60
2019-02-16T22:21:36.862Z,72.75
2019-02-16T22:24:07.015Z,72.70
2019-02-16T22:26:40.690Z,73.56
2019-02-16T22:29:11.244Z,73.31
2019-02-16T22:31:45.155Z,73.34
2019-02-16T22:34:16.108Z,73.06
2019-02-16T22:36:48.055Z,72.77
2019-02-16T22:39:18.171Z,73.21
2019-02-16T22:41:52.521Z,73.29
2019-02-16T22:44:22.510Z,73.45
2019-02-16T22:46:57.450Z,73.52
2019-02-16T22:49:30.248Z,73.77
2019-02-16T22:52:04.349Z,73.76
2019-02-16T22:54:35.270Z,74.27
2019-02-16T22:57:07.036Z,73.83
2019-02-16T22:59:38.779Z,74.25
2019-02-16T23:02:11.517Z,73.75
2019-02-16T23:04:43.068Z,74.33
2019-02-16T23:07:14.374Z,74.29
2019-02-16T23:09:45.631Z,74.51
2019-02-16T23:12:16.726Z,74.30
2019-02-16T23:14:50.512Z,74.71
2019-02-16T23:17:24.166Z,74.78
2019-02-16T23:20:03.650Z,74.84
2019-02-16T23:22:35.690Z,75.25
2019-02-16T23:25:08.591Z,75.33
2019-02-16T23:27:39.842Z,75.03
2019-02-16T23:30:13.644Z,74.97
2019-02-16T23:32:45.714Z,75.50
2019-02-16T23:35:18.222Z,75.62
2019-02-16T23:37:51.038Z,75.32
2019-02-16T23:40:25.292Z,75.71
2019-02-16T23:42:57.775Z,75.85
2019-02-16T23:45:29.397Z,75.70
2019-02-16T23:48:03.433Z,75.79
2019-02-16T23:50:34.476Z,75.92
2019-02-16T23:53:08.348Z,75.70
2019-02-16T23:55:41.171Z,76.04
2019-02-16T23:58:16.719Z,75.69
